.
WxDataArchive / Data Records for 2007-02-16
2007-02-15 February 2007 2007-02-17

Data Records for Friday, 16 February 2007

Time	Temp	Chill	HIndex	Humid	Dewpt	 Wind 	HiWind	WindDir	Rain 	Barom 
-----	----	-----	------	-----	-----	------	------	-------	-----	----- 
00:00	4.3	4.3	4.3	69	-3.6	2	5	248	0.00	30.137 
00:05	4.3	4.3	4.3	69	-3.6	2	9	248	0.00	30.136 
00:10	4.3	4.3	4.3	69	-3.6	3	7	270	0.00	30.134 
00:15	4.1	4.1	4.1	69	-3.8	2	6	270	0.00	30.133 
00:20	4.1	4.1	4.1	69	-3.8	2	6	270	0.00	30.133 
00:25	4.1	-4.2	4.1	70	-3.5	4	12	270	0.00	30.132 
00:30	4.1	4.1	4.1	69	-3.8	2	7	270	0.00	30.128 
00:35	3.9	3.9	3.9	69	-4.0	1	9	270	0.00	30.130 
00:40	3.7	3.7	3.7	69	-4.2	1	4	270	0.00	30.132 
00:45	3.7	3.7	3.7	69	-4.2	1	6	270	0.00	30.133 
00:50	3.7	3.7	3.7	69	-4.2	1	6	248	0.00	30.133 
00:55	3.5	3.5	3.5	69	-4.4	1	5	248	0.00	30.132 
01:00	3.5	3.5	3.5	69	-4.4	1	7	248	0.00	30.132 
01:05	3.5	3.5	3.5	69	-4.4	2	4	270	0.00	30.128 
01:10	3.4	3.4	3.4	69	-4.4	1	4	270	0.00	30.128 
01:15	3.2	3.2	3.2	69	-4.6	1	5	270	0.00	30.126 
01:20	3.2	3.2	3.2	70	-4.3	2	6	248	0.00	30.122 
01:25	3.0	3.0	3.0	69	-4.8	1	3	248	0.00	30.119 
01:30	3.0	3.0	3.0	70	-4.5	1	4	248	0.00	30.118 
01:35	2.8	2.8	2.8	70	-4.7	2	7	270	0.00	30.116 
01:40	2.8	2.8	2.8	70	-4.7	1	4	248	0.00	30.117 
01:45	2.6	2.6	2.6	70	-4.9	1	4	270	0.00	30.115 
01:50	2.6	2.6	2.6	70	-4.9	1	4	270	0.00	30.115 
01:55	2.6	2.6	2.6	70	-4.9	1	5	248	0.00	30.115 
02:00	2.4	2.4	2.4	70	-5.1	0	2	225	0.00	30.116 
02:05	2.4	2.4	2.4	70	-5.1	1	4	270	0.00	30.116 
02:10	2.2	2.2	2.2	71	-5.0	1	6	248	0.00	30.116 
02:15	2.2	2.2	2.2	71	-5.0	1	4	248	0.00	30.117 
02:20	2.0	2.0	2.0	71	-5.2	1	6	248	0.00	30.116 
02:25	2.0	2.0	2.0	71	-5.2	0	2	248	0.00	30.116 
02:30	1.8	1.8	1.8	71	-5.4	1	4	248	0.00	30.116 
02:35	1.7	1.7	1.7	71	-5.5	0	2	248	0.00	30.113 
02:40	1.7	1.7	1.7	71	-5.5	1	2	248	0.00	30.112 
02:45	1.5	1.5	1.5	71	-5.7	0	4	248	0.00	30.111 
02:50	1.5	1.5	1.5	71	-5.7	0	6	248	0.00	30.109 
02:55	1.3	1.3	1.3	72	-5.6	1	5	270	0.00	30.105 
03:00	1.3	1.3	1.3	72	-5.6	0	3	248	0.00	30.105 
03:05	1.1	1.1	1.1	72	-5.8	0	3	248	0.00	30.109 
03:10	1.1	1.1	1.1	72	-5.8	0	4	248	0.00	30.105 
03:15	0.9	0.9	0.9	72	-6.0	1	3	248	0.00	30.104 
03:20	0.9	0.9	0.9	72	-6.0	1	4	248	0.00	30.104 
03:25	0.9	0.9	0.9	72	-6.0	1	4	270	0.00	30.101 
03:30	0.7	0.7	0.7	72	-6.2	1	3	248	0.00	30.102 
03:35	0.7	0.7	0.7	72	-6.2	1	4	248	0.00	30.102 
03:40	0.5	0.5	0.5	72	-6.4	1	4	248	0.00	30.101 
03:45	0.5	0.5	0.5	72	-6.4	1	5	248	0.00	30.100 
03:50	0.3	0.3	0.3	73	-6.3	2	4	248	0.00	30.100 
03:55	0.3	0.3	0.3	73	-6.3	2	6	248	0.00	30.101 
04:00	0.3	0.3	0.3	73	-6.3	1	5	248	0.00	30.099 
04:05	0.3	0.3	0.3	73	-6.3	1	4	248	0.00	30.097 
04:10	0.1	0.1	0.1	73	-6.5	1	4	248	0.00	30.096 
04:15	0.1	0.1	0.1	73	-6.5	1	4	248	0.00	30.097 
04:20	0.1	0.1	0.1	73	-6.5	1	6	248	0.00	30.093 
04:25	0.0	0.0	0.0	73	-6.6	2	7	248	0.00	30.093 
04:30	0.0	0.0	0.0	73	-6.6	2	6	248	0.00	30.091 
04:35	0.0	0.0	0.0	73	-6.6	2	7	270	0.00	30.091 
04:40	-0.2	-0.2	-0.2	73	-6.8	2	9	248	0.00	30.091 
04:45	-0.2	-0.2	-0.2	73	-6.8	1	5	248	0.00	30.091 
04:50	-0.2	-0.2	-0.2	73	-6.8	1	4	248	0.00	30.091 
04:55	-0.4	-0.4	-0.4	73	-6.9	1	6	248	0.00	30.091 
05:00	-0.4	-0.4	-0.4	73	-6.9	1	4	248	0.00	30.091 
05:05	-0.4	-0.4	-0.4	73	-6.9	1	5	248	0.00	30.093 
05:10	-0.6	-0.6	-0.6	73	-7.1	1	4	248	0.00	30.094 
05:15	-0.8	-0.8	-0.8	73	-7.3	1	4	248	0.00	30.093 
05:20	-0.8	-0.8	-0.8	73	-7.3	2	6	248	0.00	30.094 
05:25	-1.0	-1.0	-1.0	73	-7.5	1	5	248	0.00	30.094 
05:30	-1.0	-1.0	-1.0	73	-7.5	1	3	248	0.00	30.094 
05:35	-1.2	-1.2	-1.2	73	-7.7	2	5	248	0.00	30.095 
05:40	-1.4	-1.4	-1.4	73	-7.9	2	6	248	0.00	30.094 
05:45	-1.4	-1.4	-1.4	73	-7.9	1	7	248	0.00	30.093 
05:50	-1.6	-1.6	-1.6	73	-8.1	1	6	248	0.00	30.094 
05:55	-1.6	-1.6	-1.6	73	-8.1	1	5	248	0.00	30.095 
06:00	-1.8	-1.8	-1.8	73	-8.3	1	7	248	0.00	30.094 
06:05	-1.8	-1.8	-1.8	74	-8.0	1	5	248	0.00	30.096 
06:10	-2.0	-2.0	-2.0	74	-8.2	1	6	248	0.00	30.096 
06:15	-2.0	-2.0	-2.0	74	-8.2	1	5	248	0.00	30.097 
06:20	-2.2	-2.2	-2.2	74	-8.4	1	6	248	0.00	30.096 
06:25	-2.2	-2.2	-2.2	74	-8.4	2	6	248	0.00	30.096 
06:30	-2.4	-2.4	-2.4	74	-8.6	1	5	248	0.00	30.096 
06:35	-2.4	-2.4	-2.4	74	-8.6	1	4	248	0.00	30.096 
06:40	-2.6	-2.6	-2.6	74	-8.8	1	4	248	0.00	30.098 
06:45	-2.6	-2.6	-2.6	74	-8.8	1	5	248	0.00	30.098 
06:50	-2.6	-2.6	-2.6	74	-8.8	2	6	248	0.00	30.096 
06:55	-2.8	-2.8	-2.8	74	-9.0	1	4	248	0.00	30.095 
07:00	-2.8	-2.8	-2.8	74	-9.0	1	5	248	0.00	30.098 
07:05	-2.8	-2.8	-2.8	74	-9.0	1	6	248	0.00	30.098 
07:10	-3.1	-3.1	-3.1	74	-9.3	1	4	248	0.00	30.097 
07:15	-3.1	-3.1	-3.1	74	-9.3	1	3	248	0.00	30.095 
07:20	-3.1	-3.1	-3.1	74	-9.3	1	5	248	0.00	30.095 
07:25	-3.1	-3.1	-3.1	74	-9.3	2	6	248	0.00	30.093 
07:30	-3.1	-3.1	-3.1	74	-9.3	2	5	248	0.00	30.090 
07:35	-3.3	-3.3	-3.3	74	-9.5	1	5	248	0.00	30.092 
07:40	-3.3	-3.3	-3.3	74	-9.5	1	9	248	0.00	30.098 
07:45	-3.3	-3.3	-3.3	74	-9.5	1	6	248	0.00	30.098 
07:50	-3.3	-3.3	-3.3	74	-9.5	1	5	248	0.00	30.100 
07:55	-3.1	-3.1	-3.1	74	-9.3	2	6	248	0.00	30.102 
08:00	-3.1	-3.1	-3.1	74	-9.3	1	4	248	0.00	30.106 
08:05	-3.1	-3.1	-3.1	73	-9.6	1	6	248	0.00	30.111 
08:10	-2.8	-2.8	-2.8	73	-9.3	1	4	248	0.00	30.114 
08:15	-2.6	-2.6	-2.6	73	-9.1	2	7	248	0.00	30.116 
08:20	-2.4	-2.4	-2.4	73	-8.9	1	4	248	0.00	30.115 
08:25	-2.2	-2.2	-2.2	72	-9.0	2	7	248	0.00	30.115 
08:30	-1.8	-1.8	-1.8	72	-8.6	2	5	270	0.00	30.114 
08:35	-1.6	-1.6	-1.6	71	-8.7	2	6	248	0.00	30.116 
08:40	-1.4	-1.4	-1.4	70	-8.8	3	7	248	0.00	30.109 
08:45	-1.0	-1.0	-1.0	70	-8.4	3	7	248	0.00	30.107 
08:50	-0.8	-0.8	-0.8	69	-8.5	3	9	248	0.00	30.106 
08:55	-0.4	-0.4	-0.4	69	-8.1	3	10	270	0.00	30.106 
09:00	-0.4	-9.3	-0.4	68	-8.4	4	10	248	0.00	30.103 
09:05	0.0	0.0	0.0	68	-8.0	2	6	248	0.00	30.104 
09:10	0.1	-8.8	0.1	67	-8.2	4	8	270	0.00	30.104 
09:15	0.1	-8.8	0.1	67	-8.2	4	9	270	0.00	30.103 
09:20	0.3	-8.5	0.3	66	-8.3	4	10	270	0.00	30.104 
09:25	0.5	-8.3	0.5	66	-8.1	4	10	270	0.00	30.103 
09:30	0.9	0.9	0.9	66	-7.8	3	6	270	0.00	30.102 
09:35	1.3	1.3	1.3	65	-7.7	3	12	270	0.00	30.103 
09:40	1.5	-7.2	1.5	64	-7.8	4	11	270	0.00	30.102 
09:45	1.7	1.7	1.7	64	-7.6	2	6	270	0.00	30.103 
09:50	2.0	2.0	2.0	64	-7.3	2	5	292	0.00	30.106 
09:55	2.6	2.6	2.6	64	-6.8	2	6	270	0.00	30.102 
10:00	2.8	2.8	2.8	63	-6.9	3	7	270	0.00	30.099 
10:05	3.0	3.0	3.0	62	-7.0	3	8	270	0.00	30.101 
10:10	3.2	3.2	3.2	62	-6.8	3	11	270	0.00	30.100 
10:15	3.4	-5.0	3.4	62	-6.7	4	11	270	0.00	30.104 
10:20	3.5	-4.8	3.5	63	-6.2	4	12	270	0.00	30.106 
10:25	4.1	4.1	4.1	62	-6.0	2	5	270	0.00	30.101 
10:30	4.7	4.7	4.7	60	-6.1	2	3	248	0.00	30.098 
10:35	5.0	5.0	5.0	59	-6.2	2	8	248	0.00	30.098 
10:40	5.6	5.6	5.6	59	-5.6	2	4	248	0.00	30.098 
10:45	5.8	5.8	5.8	59	-5.4	1	5	270	0.00	30.095 
10:50	6.1	6.1	6.1	58	-5.5	2	6	270	0.00	30.096 
10:55	6.1	6.1	6.1	58	-5.5	3	9	270	0.00	30.095 
11:00	6.3	6.3	6.3	58	-5.3	3	7	270	0.00	30.096 
11:05	6.5	-1.4	6.5	58	-5.1	4	11	270	0.00	30.098 
11:10	7.0	7.0	7.0	58	-4.6	2	9	248	0.00	30.098 
11:15	7.2	7.2	7.2	56	-5.2	3	10	270	0.00	30.099 
11:20	7.0	-2.3	7.0	55	-5.7	5	11	270	0.00	30.098 
11:25	7.4	7.4	7.4	56	-5.0	3	7	270	0.00	30.097 
11:30	7.6	7.6	7.6	54	-5.5	3	5	270	0.00	30.095 
11:35	7.7	7.7	7.7	55	-5.1	3	10	270	0.00	30.095 
11:40	8.1	-1.0	8.1	56	-4.3	5	14	270	0.00	30.093 
11:45	8.4	8.4	8.4	54	-4.8	3	11	270	0.00	30.092 
11:50	9.0	9.0	9.0	55	-3.8	3	7	248	0.00	30.091 
11:55	9.5	9.5	9.5	54	-3.8	3	10	270	0.00	30.090 
12:00	9.9	9.9	9.9	52	-4.2	3	7	270	0.00	30.084 
12:05	10.0	10.0	10.0	51	-4.5	3	7	270	0.00	30.084 
12:10	10.2	2.9	10.2	50	-4.7	4	10	270	0.00	30.081 
12:15	10.2	2.9	10.2	48	-5.5	4	10	270	0.00	30.080 
12:20	10.7	10.7	10.7	49	-4.7	2	7	248	0.00	30.078 
12:25	11.2	11.2	11.2	46	-5.5	3	9	270	0.00	30.078 
12:30	11.6	11.6	11.6	46	-5.1	3	9	270	0.00	30.079 
12:35	11.6	4.5	11.6	46	-5.1	4	9	270	0.00	30.077 
12:40	11.6	11.6	11.6	46	-5.1	3	6	270	0.00	30.076 
12:45	11.9	11.9	11.9	47	-4.4	3	6	270	0.00	30.073 
12:50	12.4	12.4	12.4	47	-3.9	2	6	270	0.00	30.073 
12:55	12.8	12.8	12.8	47	-3.6	2	5	248	0.00	30.066 
13:00	13.3	13.3	13.3	47	-3.1	2	6	248	0.00	30.063 
13:05	13.1	13.1	13.1	46	-3.8	2	11	248	0.00	30.064 
13:10	12.8	12.8	12.8	47	-3.6	3	7	248	0.00	30.062 
13:15	13.3	13.3	13.3	46	-3.6	2	7	270	0.00	30.060 
13:20	13.3	13.3	13.3	45	-4.0	3	7	248	0.00	30.059 
13:25	13.3	13.3	13.3	45	-4.0	3	10	270	0.00	30.058 
13:30	12.8	3.4	12.8	45	-4.5	6	14	270	0.00	30.062 
13:35	12.8	5.9	12.8	45	-4.5	4	15	270	0.00	30.061 
13:40	13.3	13.3	13.3	45	-4.0	3	7	270	0.00	30.058 
13:45	13.3	6.5	13.3	45	-4.0	4	11	270	0.00	30.057 
13:50	13.6	13.6	13.6	45	-3.7	3	7	270	0.00	30.055 
13:55	13.8	13.8	13.8	46	-3.1	3	9	270	0.00	30.050 
14:00	14.1	14.1	14.1	46	-2.8	2	7	270	0.00	30.048 
14:05	14.3	14.3	14.3	47	-2.2	3	7	248	0.00	30.049 
14:10	14.0	14.0	14.0	46	-2.9	3	9	270	0.00	30.048 
14:15	14.0	14.0	14.0	46	-2.9	3	10	270	0.00	30.046 
14:20	14.3	14.3	14.3	46	-2.6	3	11	248	0.00	30.046 
14:25	14.3	7.6	14.3	47	-2.2	4	14	248	0.00	30.046 
14:30	14.8	14.8	14.8	47	-1.7	2	6	248	0.00	30.044 
14:35	14.6	14.6	14.6	47	-1.9	2	7	248	0.00	30.044 
14:40	14.8	14.8	14.8	48	-1.3	2	7	248	0.00	30.041 
14:45	14.8	14.8	14.8	47	-1.7	3	9	270	0.00	30.040 
14:50	14.6	14.6	14.6	47	-1.9	3	11	248	0.00	30.036 
14:55	14.3	7.6	14.3	47	-2.2	4	11	270	0.00	30.037 
15:00	14.6	14.6	14.6	50	-0.6	2	7	248	0.00	30.034 
15:05	14.6	8.0	14.6	47	-1.9	4	10	270	0.00	30.032 
15:10	14.3	14.3	14.3	49	-1.3	3	10	248	0.00	30.030 
15:15	14.4	14.4	14.4	48	-1.7	3	7	270	0.00	30.027 
15:20	14.6	14.6	14.6	47	-1.9	3	7	248	0.00	30.028 
15:25	14.4	14.4	14.4	48	-1.7	3	10	248	0.00	30.028 
15:30	14.3	14.3	14.3	48	-1.8	3	10	248	0.00	30.028 
15:35	14.4	14.4	14.4	47	-2.1	3	7	248	0.00	30.027 
15:40	14.6	8.0	14.6	46	-2.4	4	11	248	0.00	30.019 
15:45	14.3	14.3	14.3	46	-2.6	3	9	248	0.00	30.015 
15:50	14.3	14.3	14.3	46	-2.6	3	7	248	0.00	30.014 
15:55	14.0	14.0	14.0	46	-2.9	3	9	270	0.00	30.014 
16:00	13.6	6.8	13.6	47	-2.8	4	10	248	0.00	30.009 
16:05	13.5	6.7	13.5	47	-2.9	4	10	248	0.00	30.005 
16:10	13.3	6.5	13.3	48	-2.7	4	12	270	0.00	30.002 
16:15	13.5	13.5	13.5	49	-2.1	3	7	248	0.00	30.000 
16:20	13.5	13.5	13.5	49	-2.1	3	12	270	0.00	29.999 
16:25	13.1	13.1	13.1	51	-1.6	2	10	248	0.00	30.000 
16:30	12.9	12.9	12.9	53	-1.0	2	5	270	0.00	29.998 
16:35	12.8	12.8	12.8	53	-1.1	2	4	248	0.00	29.996 
16:40	12.4	12.4	12.4	53	-1.4	3	9	248	0.00	29.994 
16:45	12.3	12.3	12.3	54	-1.1	2	9	248	0.00	29.989 
16:50	12.3	12.3	12.3	54	-1.1	2	10	248	0.00	29.986 
16:55	11.9	11.9	11.9	55	-1.1	2	5	248	0.00	29.985 
17:00	11.6	11.6	11.6	55	-1.4	3	12	248	0.00	29.984 
17:05	11.6	11.6	11.6	55	-1.4	3	9	248	0.00	29.987 
17:10	11.6	11.6	11.6	56	-1.0	2	10	248	0.00	29.987 
17:15	11.4	11.4	11.4	56	-1.2	3	9	270	0.00	29.985 
17:20	11.6	11.6	11.6	56	-1.0	2	8	248	0.00	29.980 
17:25	11.4	11.4	11.4	57	-0.8	2	6	248	0.00	29.982 
17:30	11.2	4.0	11.2	58	-0.7	4	11	248	0.00	29.983 
17:35	11.2	11.2	11.2	57	-1.0	2	9	248	0.00	29.986 
17:40	10.9	10.9	10.9	57	-1.3	3	10	248	0.00	29.986 
17:45	10.9	10.9	10.9	57	-1.3	2	6	270	0.00	29.979 
17:50	10.7	10.7	10.7	58	-1.1	3	9	248	0.00	29.979 
17:55	10.7	10.7	10.7	58	-1.1	2	10	248	0.00	29.979 
18:00	10.5	10.5	10.5	58	-1.3	2	7	248	0.00	29.974 
18:05	10.5	10.5	10.5	59	-1.0	2	8	248	0.00	29.975 
18:10	10.4	10.4	10.4	59	-1.1	2	5	248	0.00	29.976 
18:15	10.2	10.2	10.2	59	-1.2	1	6	248	0.00	29.973 
18:20	10.0	10.0	10.0	59	-1.4	0	1	248	0.00	29.971 
18:25	9.7	9.7	9.7	60	-1.4	1	3	248	0.00	29.975 
18:30	9.5	9.5	9.5	60	-1.5	1	3	270	0.00	29.970 
18:35	9.2	9.2	9.2	61	-1.5	0	2	112	0.00	29.962 
18:40	8.8	8.8	8.8	61	-1.9	0	1	112	0.00	29.962 
18:45	8.6	8.6	8.6	62	-1.7	0	2	270	0.00	29.961 
18:50	8.4	8.4	8.4	62	-1.9	0	2	112	0.00	29.961 
18:55	8.3	8.3	8.3	62	-2.0	0	2	112	0.00	29.959 
19:00	8.3	8.3	8.3	62	-2.0	0	1	135	0.00	29.958 
19:05	8.1	8.1	8.1	63	-1.9	0	2	135	0.00	29.958 
19:10	7.9	7.9	7.9	63	-2.0	0	1	135	0.00	29.960 
19:15	7.6	7.6	7.6	63	-2.3	0	2	158	0.00	29.960 
19:20	7.4	7.4	7.4	64	-2.2	0	1	90	0.00	29.957 
19:25	7.4	7.4	7.4	64	-2.2	0	1	90	0.00	29.958 
19:30	7.0	7.0	7.0	65	-2.2	0	1	90	0.00	29.956 
19:35	7.0	7.0	7.0	65	-2.2	0	1	90	0.00	29.955 
19:40	7.0	7.0	7.0	66	-1.9	0	1	90	0.00	29.953 
19:45	7.2	7.2	7.2	67	-1.4	0	2	90	0.00	29.949 
19:50	7.6	7.6	7.6	67	-1.0	0	2	90	0.00	29.947 
19:55	7.9	7.9	7.9	67	-0.7	0	2	90	0.00	29.945 
20:00	8.1	8.1	8.1	67	-0.6	0	1	90	0.00	29.939 
20:05	8.1	8.1	8.1	67	-0.6	0	1	90	0.00	29.932 
20:10	8.1	8.1	8.1	68	-0.2	0	1	90	0.00	29.930 
20:15	8.3	8.3	8.3	69	0.3	1	3	112	0.00	29.926 
20:20	8.4	8.4	8.4	69	0.4	1	4	112	0.00	29.925 
20:25	8.6	8.6	8.6	69	0.5	0	2	22	0.00	29.925 
20:30	8.6	8.6	8.6	69	0.5	0	3	45	0.00	29.923 
20:35	8.4	8.4	8.4	69	0.4	0	1	22	0.00	29.924 
20:40	8.4	8.4	8.4	69	0.4	0	2	22	0.00	29.923 
20:45	8.3	8.3	8.3	70	0.6	0	1	22	0.00	29.924 
20:50	8.3	8.3	8.3	71	0.9	0	2	22	0.00	29.920 
20:55	8.3	8.3	8.3	71	0.9	0	3	112	0.00	29.917 
21:00	8.3	8.3	8.3	72	1.2	0	3	225	0.00	29.921 
21:05	8.6	8.6	8.6	73	1.8	1	3	248	0.00	29.923 
21:10	8.8	8.8	8.8	72	1.6	0	3	248	0.00	29.918 
21:15	8.8	8.8	8.8	72	1.6	0	1	248	0.00	29.918 
21:20	8.8	8.8	8.8	72	1.6	0	2	248	0.00	29.914 
21:25	8.6	8.6	8.6	72	1.5	0	2	248	0.00	29.914 
21:30	8.4	8.4	8.4	72	1.3	0	1	248	0.00	29.917 
21:35	8.3	8.3	8.3	72	1.2	0	2	248	0.00	29.919 
21:40	8.1	8.1	8.1	73	1.3	0	1	248	0.00	29.917 
21:45	7.9	7.9	7.9	73	1.1	0	1	248	0.00	29.917 
21:50	7.9	7.9	7.9	73	1.1	0	1	248	0.00	29.917 
21:55	7.9	7.9	7.9	74	1.4	0	1	248	0.00	29.918 
22:00	8.1	8.1	8.1	74	1.6	0	1	248	0.00	29.916 
22:05	8.1	8.1	8.1	74	1.6	0	0	---	0.00	29.911 
22:10	8.1	8.1	8.1	75	1.8	0	1	248	0.00	29.909 
22:15	8.4	8.4	8.4	75	2.1	0	1	248	0.00	29.907 
22:20	8.6	8.6	8.6	75	2.3	0	2	248	0.00	29.907 
22:25	9.2	9.2	9.2	75	2.9	0	3	248	0.00	29.907 
22:30	9.7	9.7	9.7	75	3.4	0	2	248	0.00	29.903 
22:35	10.0	10.0	10.0	74	3.4	1	3	248	0.00	29.904 
22:40	10.5	10.5	10.5	73	3.6	1	3	248	0.00	29.903 
22:45	10.7	10.7	10.7	73	3.8	0	2	248	0.00	29.901 
22:50	11.1	11.1	11.1	72	3.9	1	4	225	0.00	29.899 
22:55	11.2	11.2	11.2	72	4.0	0	3	248	0.00	29.896 
23:00	11.2	11.2	11.2	72	4.0	0	2	248	0.00	29.894 
23:05	11.2	11.2	11.2	72	4.0	0	1	248	0.00	29.891 
23:10	11.2	11.2	11.2	72	4.0	0	1	248	0.00	29.890 
23:15	11.2	11.2	11.2	72	4.0	0	1	248	0.00	29.885 
23:20	11.2	11.2	11.2	72	4.0	0	1	248	0.00	29.883 
23:25	11.2	11.2	11.2	72	4.0	0	2	248	0.00	29.882 
23:30	10.9	10.9	10.9	72	3.7	0	1	248	0.00	29.882 
23:35	10.7	10.7	10.7	72	3.5	0	1	248	0.00	29.882 
23:40	10.4	10.4	10.4	73	3.5	0	1	248	0.00	29.882 
23:45	10.2	10.2	10.2	73	3.3	0	1	248	0.00	29.881 
23:50	10.2	10.2	10.2	73	3.3	0	1	248	0.00	29.880 
23:55	10.2	10.2	10.2	73	3.3	0	1	248	0.00	29.878 

CoCoRaHS
IN-AL-39
A2 Web Hosting
Creative Commons License
GoDaddy
Look for:

loaded 2017-10-19 14:26:00 • last modified 2010-11-18 10:43:29
Privacy PolicyDisclaimer
• wx.awcolley.com is powered by PmWiki v.2002016 •
• all content (unless otherwise noted) © 2017 A W Colley